sensor_id;sensor_type;location;lat;lon;timestamp;pressure;altitude;pressure_sealevel;temperature
37452;BMP280;23314;51.114;6.900;2023-07-02T07:02:33;100702.09;;;20.90
37452;BMP280;23314;51.114;6.900;2023-07-02T07:04:58;100710.44;;;21.19
37452;BMP280;23314;51.114;6.900;2023-07-02T07:07:24;100709.91;;;21.46
37452;BMP280;23314;51.114;6.900;2023-07-02T07:09:49;100706.88;;;21.71
37452;BMP280;23314;51.114;6.900;2023-07-02T07:12:14;100710.41;;;21.94
37452;BMP280;23314;51.114;6.900;2023-07-02T07:14:39;100707.75;;;22.05
37452;BMP280;23314;51.114;6.900;2023-07-02T07:17:05;100701.09;;;22.06
37452;BMP280;23314;51.114;6.900;2023-07-02T07:19:30;100707.06;;;22.21
37452;BMP280;23314;51.114;6.900;2023-07-02T07:21:56;100718.19;;;22.29
37452;BMP280;23314;51.114;6.900;2023-07-02T07:24:22;100712.53;;;22.33
37452;BMP280;23314;51.114;6.900;2023-07-02T07:26:48;100717.75;;;22.53
37452;BMP280;23314;51.114;6.900;2023-07-02T07:29:13;100719.53;;;22.68
37452;BMP280;23314;51.114;6.900;2023-07-02T07:31:39;100718.53;;;22.77
37452;BMP280;23314;51.114;6.900;2023-07-02T07:34:05;100718.78;;;22.73
37452;BMP280;23314;51.114;6.900;2023-07-02T07:36:30;100716.81;;;22.85
37452;BMP280;23314;51.114;6.900;2023-07-02T07:38:55;100715.81;;;23.05
37452;BMP280;23314;51.114;6.900;2023-07-02T07:41:20;100708.38;;;23.28
37452;BMP280;23314;51.114;6.900;2023-07-02T07:43:46;100725.91;;;23.44
37452;BMP280;23314;51.114;6.900;2023-07-02T07:46:11;100721.38;;;23.69
37452;BMP280;23314;51.114;6.900;2023-07-02T07:48:36;100721.81;;;23.90
37452;BMP280;23314;51.114;6.900;2023-07-02T07:51:02;100717.56;;;24.01
37452;BMP280;23314;51.114;6.900;2023-07-02T07:53:28;100728.00;;;23.85
37452;BMP280;23314;51.114;6.900;2023-07-02T07:55:53;100731.25;;;23.72
37452;BMP280;23314;51.114;6.900;2023-07-02T07:58:18;100726.13;;;23.63
37452;BMP280;23314;51.114;6.900;2023-07-02T08:00:44;100738.25;;;23.62
37452;BMP280;23314;51.114;6.900;2023-07-02T08:03:10;100731.06;;;23.53
37452;BMP280;23314;51.114;6.900;2023-07-02T08:05:35;100735.97;;;23.66
37452;BMP280;23314;51.114;6.900;2023-07-02T08:08:00;100728.88;;;23.52
37452;BMP280;23314;51.114;6.900;2023-07-02T08:10:26;100733.56;;;23.45
37452;BMP280;23314;51.114;6.900;2023-07-02T08:12:53;100734.53;;;23.59
37452;BMP280;23314;51.114;6.900;2023-07-02T08:15:18;100734.75;;;23.73
37452;BMP280;23314;51.114;6.900;2023-07-02T08:17:43;100737.16;;;23.93
37452;BMP280;23314;51.114;6.900;2023-07-02T08:20:09;100746.31;;;23.90
37452;BMP280;23314;51.114;6.900;2023-07-02T08:22:38;100749.81;;;23.79
37452;BMP280;23314;51.114;6.900;2023-07-02T08:25:05;100755.44;;;24.04
37452;BMP280;23314;51.114;6.900;2023-07-02T08:27:31;100750.63;;;24.22
37452;BMP280;23314;51.114;6.900;2023-07-02T08:29:56;100748.28;;;24.43
37452;BMP280;23314;51.114;6.900;2023-07-02T08:32:22;100750.25;;;24.48
37452;BMP280;23314;51.114;6.900;2023-07-02T08:34:47;100755.91;;;24.50
37452;BMP280;23314;51.114;6.900;2023-07-02T08:37:12;100758.19;;;24.46
37452;BMP280;23314;51.114;6.900;2023-07-02T08:39:38;100756.63;;;24.56
37452;BMP280;23314;51.114;6.900;2023-07-02T08:42:05;100759.53;;;24.64
37452;BMP280;23314;51.114;6.900;2023-07-02T08:44:30;100757.59;;;24.89
37452;BMP280;23314;51.114;6.900;2023-07-02T08:46:55;100758.16;;;25.12
37452;BMP280;23314;51.114;6.900;2023-07-02T08:49:22;100755.94;;;25.11
37452;BMP280;23314;51.114;6.900;2023-07-02T08:51:48;100760.78;;;24.99
37452;BMP280;23314;51.114;6.900;2023-07-02T08:54:13;100752.63;;;24.57
37452;BMP280;23314;51.114;6.900;2023-07-02T08:56:39;100756.25;;;24.35
37452;BMP280;23314;51.114;6.900;2023-07-02T08:59:09;100761.25;;;24.25
37452;BMP280;23314;51.114;6.900;2023-07-02T09:01:45;100772.69;;;24.24
37452;BMP280;23314;51.114;6.900;2023-07-02T09:04:22;100769.72;;;24.22
37452;BMP280;23314;51.114;6.900;2023-07-02T09:07:03;100760.00;;;24.32
37452;BMP280;23314;51.114;6.900;2023-07-02T09:09:29;100753.31;;;24.33
37452;BMP280;23314;51.114;6.900;2023-07-02T09:11:55;100753.72;;;24.43
37452;BMP280;23314;51.114;6.900;2023-07-02T09:17:06;100749.25;;;24.45
37452;BMP280;23314;51.114;6.900;2023-07-02T09:19:32;100756.22;;;24.41
37452;BMP280;23314;51.114;6.900;2023-07-02T09:21:59;100772.16;;;24.25
37452;BMP280;23314;51.114;6.900;2023-07-02T09:24:24;100765.09;;;24.05
37452;BMP280;23314;51.114;6.900;2023-07-02T09:26:52;100763.66;;;23.87
37452;BMP280;23314;51.114;6.900;2023-07-02T09:29:31;100768.88;;;23.79
37452;BMP280;23314;51.114;6.900;2023-07-02T09:32:04;100770.38;;;23.80
37452;BMP280;23314;51.114;6.900;2023-07-02T09:34:34;100766.16;;;23.85
37452;BMP280;23314;51.114;6.900;2023-07-02T09:37:01;100770.06;;;23.95
37452;BMP280;23314;51.114;6.900;2023-07-02T09:39:31;100775.47;;;24.12
37452;BMP280;23314;51.114;6.900;2023-07-02T09:41:58;100766.59;;;24.42
37452;BMP280;23314;51.114;6.900;2023-07-02T09:44:34;100776.97;;;24.55
37452;BMP280;23314;51.114;6.900;2023-07-02T09:49:41;100768.09;;;24.85
37452;BMP280;23314;51.114;6.900;2023-07-02T09:52:08;100772.81;;;24.84
37452;BMP280;23314;51.114;6.900;2023-07-02T09:54:35;100767.81;;;24.52
37452;BMP280;23314;51.114;6.900;2023-07-02T09:57:01;100772.69;;;24.24
37452;BMP280;23314;51.114;6.900;2023-07-02T09:59:26;100768.75;;;24.13
37452;BMP280;23314;51.114;6.900;2023-07-02T10:01:52;100777.50;;;24.01
37452;BMP280;23314;51.114;6.900;2023-07-02T10:04:19;100779.22;;;23.98
37452;BMP280;23314;51.114;6.900;2023-07-02T10:06:48;100774.97;;;24.03
37452;BMP280;23314;51.114;6.900;2023-07-02T10:09:15;100780.34;;;24.25
37452;BMP280;23314;51.114;6.900;2023-07-02T10:11:40;100780.97;;;24.48
37452;BMP280;23314;51.114;6.900;2023-07-02T10:14:06;100781.28;;;24.75
37452;BMP280;23314;51.114;6.900;2023-07-02T10:16:31;100769.88;;;25.07
37452;BMP280;23314;51.114;6.900;2023-07-02T10:19:13;100790.16;;;25.42
37452;BMP280;23314;51.114;6.900;2023-07-02T10:21:38;100773.13;;;25.55
37452;BMP280;23314;51.114;6.900;2023-07-02T10:24:14;100776.47;;;25.67
37452;BMP280;23314;51.114;6.900;2023-07-02T10:26:55;100763.81;;;25.64
37452;BMP280;23314;51.114;6.900;2023-07-02T10:29:23;100779.66;;;25.46
37452;BMP280;23314;51.114;6.900;2023-07-02T10:31:50;100784.53;;;25.34
37452;BMP280;23314;51.114;6.900;2023-07-02T10:34:16;100770.72;;;25.46
37452;BMP280;23314;51.114;6.900;2023-07-02T10:36:41;100777.41;;;25.50
37452;BMP280;23314;51.114;6.900;2023-07-02T10:39:06;100772.78;;;25.39
37452;BMP280;23314;51.114;6.900;2023-07-02T10:41:34;100778.41;;;25.22
37452;BMP280;23314;51.114;6.900;2023-07-02T10:44:07;100792.88;;;25.17
37452;BMP280;23314;51.114;6.900;2023-07-02T10:46:33;100775.22;;;25.18
37452;BMP280;23314;51.114;6.900;2023-07-02T10:48:58;100784.16;;;25.19
37452;BMP280;23314;51.114;6.900;2023-07-02T10:51:24;100784.03;;;25.05
37452;BMP280;23314;51.114;6.900;2023-07-02T10:54:02;100792.00;;;24.67
37452;BMP280;23314;51.114;6.900;2023-07-02T10:56:31;100786.34;;;24.18
37452;BMP280;23314;51.114;6.900;2023-07-02T10:58:56;100805.78;;;23.80
37452;BMP280;23314;51.114;6.900;2023-07-02T11:01:29;100807.56;;;23.55
37452;BMP280;23314;51.114;6.900;2023-07-02T11:04:02;100804.63;;;23.25
37452;BMP280;23314;51.114;6.900;2023-07-02T11:06:29;100800.91;;;23.28
37452;BMP280;23314;51.114;6.900;2023-07-02T11:08:56;100805.34;;;23.37
37452;BMP280;23314;51.114;6.900;2023-07-02T11:11:22;100804.38;;;23.51
37452;BMP280;23314;51.114;6.900;2023-07-02T11:13:49;100802.84;;;23.67
37452;BMP280;23314;51.114;6.900;2023-07-02T11:16:26;100802.06;;;23.89
37452;BMP280;23314;51.114;6.900;2023-07-02T11:18:54;100806.59;;;24.28
37452;BMP280;23314;51.114;6.900;2023-07-02T11:21:20;100801.78;;;24.51
37452;BMP280;23314;51.114;6.900;2023-07-02T11:23:45;100812.09;;;24.64
37452;BMP280;23314;51.114;6.900;2023-07-02T11:26:11;100812.97;;;24.48
37452;BMP280;23314;51.114;6.900;2023-07-02T11:28:48;100816.84;;;24.11
37452;BMP280;23314;51.114;6.900;2023-07-02T11:31:14;100813.91;;;23.92
37452;BMP280;23314;51.114;6.900;2023-07-02T11:33:40;100819.41;;;23.80
37452;BMP280;23314;51.114;6.900;2023-07-02T11:36:06;100816.41;;;23.84
37452;BMP280;23314;51.114;6.900;2023-07-02T11:38:33;100818.13;;;24.04
37452;BMP280;23314;51.114;6.900;2023-07-02T11:40:59;100823.25;;;24.19
37452;BMP280;23314;51.114;6.900;2023-07-02T11:43:25;100820.22;;;24.34
37452;BMP280;23314;51.114;6.900;2023-07-02T11:45:51;100821.41;;;24.39
37452;BMP280;23314;51.114;6.900;2023-07-02T11:48:16;100820.16;;;24.45
37452;BMP280;23314;51.114;6.900;2023-07-02T11:50:42;100819.53;;;24.64
37452;BMP280;23314;51.114;6.900;2023-07-02T11:53:07;100816.59;;;24.98
37452;BMP280;23314;51.114;6.900;2023-07-02T11:55:32;100817.50;;;25.36
37452;BMP280;23314;51.114;6.900;2023-07-02T11:57:58;100811.03;;;25.39
37452;BMP280;23314;51.114;6.900;2023-07-02T12:00:23;100820.69;;;25.16
37452;BMP280;23314;51.114;6.900;2023-07-02T12:02:48;100798.91;;;25.04
37452;BMP280;23314;51.114;6.900;2023-07-02T12:05:14;100807.09;;;25.04
37452;BMP280;23314;51.114;6.900;2023-07-02T12:07:39;100811.19;;;24.86
37452;BMP280;23314;51.114;6.900;2023-07-02T12:10:06;100806.81;;;24.78
37452;BMP280;23314;51.114;6.900;2023-07-02T12:12:31;100808.47;;;24.86
37452;BMP280;23314;51.114;6.900;2023-07-02T12:14:57;100807.75;;;24.86
37452;BMP280;23314;51.114;6.900;2023-07-02T12:17:22;100803.59;;;25.10
37452;BMP280;23314;51.114;6.900;2023-07-02T12:19:47;100812.31;;;25.33
37452;BMP280;23314;51.114;6.900;2023-07-02T12:22:13;100802.50;;;25.49
37452;BMP280;23314;51.114;6.900;2023-07-02T12:24:42;100796.84;;;25.41
37452;BMP280;23314;51.114;6.900;2023-07-02T12:27:07;100795.09;;;25.44
37452;BMP280;23314;51.114;6.900;2023-07-02T12:29:33;100793.50;;;25.54
37452;BMP280;23314;51.114;6.900;2023-07-02T12:31:58;100802.44;;;25.73
37452;BMP280;23314;51.114;6.900;2023-07-02T12:34:23;100801.38;;;25.82
37452;BMP280;23314;51.114;6.900;2023-07-02T12:36:49;100796.78;;;25.71
37452;BMP280;23314;51.114;6.900;2023-07-02T12:39:14;100803.78;;;25.67
37452;BMP280;23314;51.114;6.900;2023-07-02T12:41:40;100808.19;;;25.51
37452;BMP280;23314;51.114;6.900;2023-07-02T12:44:06;100794.41;;;25.37
37452;BMP280;23314;51.114;6.900;2023-07-02T12:46:31;100803.09;;;25.36
37452;BMP280;23314;51.114;6.900;2023-07-02T12:48:57;100798.84;;;25.40
37452;BMP280;23314;51.114;6.900;2023-07-02T12:51:22;100793.28;;;25.52
37452;BMP280;23314;51.114;6.900;2023-07-02T12:53:47;100794.34;;;25.68
37452;BMP280;23314;51.114;6.900;2023-07-02T12:56:12;100807.78;;;25.66
37452;BMP280;23314;51.114;6.900;2023-07-02T12:58:38;100799.94;;;25.56
37452;BMP280;23314;51.114;6.900;2023-07-02T13:01:03;100803.78;;;25.67
37452;BMP280;23314;51.114;6.900;2023-07-02T13:03:30;100805.44;;;25.94
37452;BMP280;23314;51.114;6.900;2023-07-02T13:05:55;100805.88;;;26.37
37452;BMP280;23314;51.114;6.900;2023-07-02T13:08:21;100810.63;;;26.68
37452;BMP280;23314;51.114;6.900;2023-07-02T13:10:46;100812.00;;;26.94
37452;BMP280;23314;51.114;6.900;2023-07-02T13:13:11;100818.94;;;27.09
37452;BMP280;23314;51.114;6.900;2023-07-02T13:15:37;100813.75;;;26.92
37452;BMP280;23314;51.114;6.900;2023-07-02T13:18:03;100812.38;;;26.72
37452;BMP280;23314;51.114;6.900;2023-07-02T13:20:29;100817.59;;;26.70
37452;BMP280;23314;51.114;6.900;2023-07-02T13:22:54;100813.69;;;26.65
37452;BMP280;23314;51.114;6.900;2023-07-02T13:25:20;100808.84;;;26.58
37452;BMP280;23314;51.114;6.900;2023-07-02T13:27:45;100817.53;;;26.56
37452;BMP280;23314;51.114;6.900;2023-07-02T13:30:10;100807.13;;;26.55
37452;BMP280;23314;51.114;6.900;2023-07-02T13:32:36;100806.25;;;26.46
37452;BMP280;23314;51.114;6.900;2023-07-02T13:35:01;100815.94;;;26.28
37452;BMP280;23314;51.114;6.900;2023-07-02T13:37:27;100814.78;;;26.24
37452;BMP280;23314;51.114;6.900;2023-07-02T13:39:52;100811.88;;;26.16
37452;BMP280;23314;51.114;6.900;2023-07-02T13:42:17;100815.88;;;26.15
37452;BMP280;23314;51.114;6.900;2023-07-02T13:44:43;100805.69;;;26.16
37452;BMP280;23314;51.114;6.900;2023-07-02T13:47:09;100817.28;;;26.22
37452;BMP280;23314;51.114;6.900;2023-07-02T13:49:34;100820.16;;;26.29
37452;BMP280;23314;51.114;6.900;2023-07-02T13:51:59;100819.88;;;26.33
37452;BMP280;23314;51.114;6.900;2023-07-02T13:54:25;100814.31;;;26.39
37452;BMP280;23314;51.114;6.900;2023-07-02T13:56:51;100814.38;;;26.52
37452;BMP280;23314;51.114;6.900;2023-07-02T13:59:19;100818.69;;;26.47
37452;BMP280;23314;51.114;6.900;2023-07-02T14:01:45;100819.22;;;26.59
37452;BMP280;23314;51.114;6.900;2023-07-02T14:04:10;100823.56;;;26.55
37452;BMP280;23314;51.114;6.900;2023-07-02T14:06:36;100819.78;;;26.20
37452;BMP280;23314;51.114;6.900;2023-07-02T14:09:03;100825.41;;;26.08
37452;BMP280;23314;51.114;6.900;2023-07-02T14:11:28;100815.81;;;26.21
37452;BMP280;23314;51.114;6.900;2023-07-02T14:13:54;100815.75;;;26.26
37452;BMP280;23314;51.114;6.900;2023-07-02T14:16:20;100821.44;;;26.09
37452;BMP280;23314;51.114;6.900;2023-07-02T14:18:45;100819.41;;;25.91
37452;BMP280;23314;51.114;6.900;2023-07-02T14:21:11;100817.13;;;25.76
37452;BMP280;23314;51.114;6.900;2023-07-02T14:23:36;100818.19;;;25.67
37452;BMP280;23314;51.114;6.900;2023-07-02T14:26:01;100812.50;;;25.84
37452;BMP280;23314;51.114;6.900;2023-07-02T14:28:26;100815.94;;;25.90
37452;BMP280;23314;51.114;6.900;2023-07-02T14:31:04;100796.56;;;25.69
37452;BMP280;23314;51.114;6.900;2023-07-02T14:33:32;100815.00;;;25.63
37452;BMP280;23314;51.114;6.900;2023-07-02T14:35:58;100811.19;;;25.47
37452;BMP280;23314;51.114;6.900;2023-07-02T14:38:24;100816.38;;;25.51
37452;BMP280;23314;51.114;6.900;2023-07-02T14:40:50;100804.88;;;25.58
37452;BMP280;23314;51.114;6.900;2023-07-02T14:43:16;100799.88;;;25.81
37452;BMP280;23314;51.114;6.900;2023-07-02T14:45:47;100807.44;;;25.94
37452;BMP280;23314;51.114;6.900;2023-07-02T14:48:13;100805.75;;;26.10
37452;BMP280;23314;51.114;6.900;2023-07-02T14:50:49;100802.22;;;26.34
37452;BMP280;23314;51.114;6.900;2023-07-02T14:53:15;100799.81;;;26.63
37452;BMP280;23314;51.114;6.900;2023-07-02T14:55:41;100795.41;;;26.73
37452;BMP280;23314;51.114;6.900;2023-07-02T14:58:07;100797.47;;;26.67
37452;BMP280;23314;51.114;6.900;2023-07-02T15:00:32;100786.19;;;26.57
37452;BMP280;23314;51.114;6.900;2023-07-02T15:02:58;100773.88;;;26.50
37452;BMP280;23314;51.114;6.900;2023-07-02T15:05:23;100798.03;;;26.46
37452;BMP280;23314;51.114;6.900;2023-07-02T15:07:49;100794.34;;;26.25
37452;BMP280;23314;51.114;6.900;2023-07-02T15:10:14;100802.28;;;26.09
37452;BMP280;23314;51.114;6.900;2023-07-02T15:12:39;100793.72;;;26.00
37452;BMP280;23314;51.114;6.900;2023-07-02T15:15:05;100796.72;;;26.15
37452;BMP280;23314;51.114;6.900;2023-07-02T15:17:30;100798.44;;;26.18
37452;BMP280;23314;51.114;6.900;2023-07-02T15:19:56;100795.03;;;26.12
37452;BMP280;23314;51.114;6.900;2023-07-02T15:22:21;100797.31;;;26.08
37452;BMP280;23314;51.114;6.900;2023-07-02T15:24:46;100794.69;;;26.21
37452;BMP280;23314;51.114;6.900;2023-07-02T15:27:12;100792.88;;;26.43
37452;BMP280;23314;51.114;6.900;2023-07-02T15:29:37;100791.81;;;26.65
37452;BMP280;23314;51.114;6.900;2023-07-02T15:32:02;100789.38;;;26.61
37452;BMP280;23314;51.114;6.900;2023-07-02T15:34:28;100793.06;;;26.64
37452;BMP280;23314;51.114;6.900;2023-07-02T15:36:53;100790.03;;;26.67
37452;BMP280;23314;51.114;6.900;2023-07-02T15:39:19;100792.34;;;26.77
37452;BMP280;23314;51.114;6.900;2023-07-02T15:41:48;100800.22;;;26.67
37452;BMP280;23314;51.114;6.900;2023-07-02T15:44:13;100794.56;;;26.46
37452;BMP280;23314;51.114;6.900;2023-07-02T15:46:38;100788.09;;;26.30
37452;BMP280;23314;51.114;6.900;2023-07-02T15:49:04;100795.91;;;26.39
37452;BMP280;23314;51.114;6.900;2023-07-02T15:51:31;100792.56;;;26.46
37452;BMP280;23314;51.114;6.900;2023-07-02T15:54:02;100779.03;;;26.54
37452;BMP280;23314;51.114;6.900;2023-07-02T15:56:32;100790.34;;;26.64
37452;BMP280;23314;51.114;6.900;2023-07-02T15:58:59;100787.03;;;26.84
37452;BMP280;23314;51.114;6.900;2023-07-02T16:01:24;100784.81;;;26.96
37452;BMP280;23314;51.114;6.900;2023-07-02T16:03:49;100786.72;;;27.01
37452;BMP280;23314;51.114;6.900;2023-07-02T16:06:15;100781.25;;;27.01
37452;BMP280;23314;51.114;6.900;2023-07-02T16:08:41;100782.41;;;27.06
37452;BMP280;23314;51.114;6.900;2023-07-02T16:11:08;100781.59;;;27.11
37452;BMP280;23314;51.114;6.900;2023-07-02T16:13:36;100784.94;;;27.17
37452;BMP280;23314;51.114;6.900;2023-07-02T16:16:02;100788.00;;;27.14
37452;BMP280;23314;51.114;6.900;2023-07-02T16:18:28;100783.13;;;27.07
37452;BMP280;23314;51.114;6.900;2023-07-02T16:20:55;100782.63;;;27.08
37452;BMP280;23314;51.114;6.900;2023-07-02T16:23:21;100784.31;;;26.98
37452;BMP280;23314;51.114;6.900;2023-07-02T16:25:54;100781.66;;;26.92
37452;BMP280;23314;51.114;6.900;2023-07-02T16:28:20;100775.22;;;26.90
37452;BMP280;23314;51.114;6.900;2023-07-02T16:30:45;100776.63;;;27.10
37452;BMP280;23314;51.114;6.900;2023-07-02T16:33:10;100785.03;;;27.25
37452;BMP280;23314;51.114;6.900;2023-07-02T16:35:35;100774.69;;;27.58
37452;BMP280;23314;51.114;6.900;2023-07-02T16:38:01;100782.25;;;27.92
37452;BMP280;23314;51.114;6.900;2023-07-02T16:40:26;100779.59;;;28.21
37452;BMP280;23314;51.114;6.900;2023-07-02T16:42:52;100774.38;;;28.30
37452;BMP280;23314;51.114;6.900;2023-07-02T16:45:17;100770.91;;;27.95
37452;BMP280;23314;51.114;6.900;2023-07-02T16:47:42;100771.75;;;27.56
37452;BMP280;23314;51.114;6.900;2023-07-02T16:50:09;100775.16;;;27.22
37452;BMP280;23314;51.114;6.900;2023-07-02T16:52:34;100779.50;;;27.31
37452;BMP280;23314;51.114;6.900;2023-07-02T16:55:00;100772.41;;;27.96
37452;BMP280;23314;51.114;6.900;2023-07-02T16:57:25;100770.06;;;28.01
37452;BMP280;23314;51.114;6.900;2023-07-02T16:59:51;100762.34;;;27.78
37452;BMP280;23314;51.114;6.900;2023-07-02T17:02:16;100751.53;;;27.32
37452;BMP280;23314;51.114;6.900;2023-07-02T17:04:41;100752.69;;;26.83
37452;BMP280;23314;51.114;6.900;2023-07-02T17:07:07;100764.16;;;26.49
37452;BMP280;23314;51.114;6.900;2023-07-02T17:09:36;100770.94;;;26.29
37452;BMP280;23314;51.114;6.900;2023-07-02T17:12:11;100770.75;;;26.60
37452;BMP280;23314;51.114;6.900;2023-07-02T17:14:37;100766.06;;;27.54
37452;BMP280;23314;51.114;6.900;2023-07-02T17:17:07;100765.22;;;28.07
37452;BMP280;23314;51.114;6.900;2023-07-02T17:19:36;100759.91;;;28.09
37452;BMP280;23314;51.114;6.900;2023-07-02T17:22:04;100761.69;;;28.20
37452;BMP280;23314;51.114;6.900;2023-07-02T17:24:33;100758.72;;;28.39
37452;BMP280;23314;51.114;6.900;2023-07-02T17:26:59;100759.31;;;28.66
37452;BMP280;23314;51.114;6.900;2023-07-02T17:29:25;100752.63;;;29.11
37452;BMP280;23314;51.114;6.900;2023-07-02T17:31:56;100756.41;;;29.44
37452;BMP280;23314;51.114;6.900;2023-07-02T17:34:24;100750.38;;;29.46
37452;BMP280;23314;51.114;6.900;2023-07-02T17:36:52;100753.72;;;29.52
37452;BMP280;23314;51.114;6.900;2023-07-02T17:39:18;100751.72;;;29.60
37452;BMP280;23314;51.114;6.900;2023-07-02T17:41:47;100751.25;;;29.33
37452;BMP280;23314;51.114;6.900;2023-07-02T17:44:17;100750.75;;;28.77
37452;BMP280;23314;51.114;6.900;2023-07-02T17:46:43;100748.88;;;28.43
37452;BMP280;23314;51.114;6.900;2023-07-02T17:49:09;100755.81;;;28.02
37452;BMP280;23314;51.114;6.900;2023-07-02T17:51:36;100745.19;;;27.64
37452;BMP280;23314;51.114;6.900;2023-07-02T17:54:03;100746.31;;;27.21
37452;BMP280;23314;51.114;6.900;2023-07-02T17:56:29;100738.50;;;26.98
37452;BMP280;23314;51.114;6.900;2023-07-02T17:58:54;100737.81;;;26.79
37452;BMP280;23314;51.114;6.900;2023-07-02T18:01:20;100753.56;;;26.59
37452;BMP280;23314;51.114;6.900;2023-07-02T18:03:46;100745.44;;;26.40
37452;BMP280;23314;51.114;6.900;2023-07-02T18:06:11;100745.97;;;26.20
37452;BMP280;23314;51.114;6.900;2023-07-02T18:08:36;100737.81;;;26.01
37452;BMP280;23314;51.114;6.900;2023-07-02T18:11:01;100745.81;;;26.31
37452;BMP280;23314;51.114;6.900;2023-07-02T18:13:27;100745.34;;;26.46
37452;BMP280;23314;51.114;6.900;2023-07-02T18:15:53;100743.75;;;26.37
37452;BMP280;23314;51.114;6.900;2023-07-02T18:18:19;100734.59;;;26.16
37452;BMP280;23314;51.114;6.900;2023-07-02T18:20:45;100745.63;;;26.10
37452;BMP280;23314;51.114;6.900;2023-07-02T18:23:11;100742.47;;;25.87
37452;BMP280;23314;51.114;6.900;2023-07-02T18:25:36;100739.53;;;25.60
37452;BMP280;23314;51.114;6.900;2023-07-02T18:28:06;100739.88;;;25.51
37452;BMP280;23314;51.114;6.900;2023-07-02T18:30:32;100743.66;;;25.48
37452;BMP280;23314;51.114;6.900;2023-07-02T18:32:58;100746.50;;;25.36
37452;BMP280;23314;51.114;6.900;2023-07-02T18:35:23;100749.88;;;25.23
37452;BMP280;23314;51.114;6.900;2023-07-02T18:37:49;100739.56;;;25.11
37452;BMP280;23314;51.114;6.900;2023-07-02T18:40:15;100743.09;;;25.05
37452;BMP280;23314;51.114;6.900;2023-07-02T18:42:46;100741.66;;;24.99
37452;BMP280;23314;51.114;6.900;2023-07-02T18:45:11;100738.75;;;24.91
37452;BMP280;23314;51.114;6.900;2023-07-02T18:47:37;100735.63;;;24.81
37452;BMP280;23314;51.114;6.900;2023-07-02T18:50:02;100729.94;;;24.74
37452;BMP280;23314;51.114;6.900;2023-07-02T18:52:28;100735.72;;;24.64
37452;BMP280;23314;51.114;6.900;2023-07-02T18:54:53;100733.34;;;24.49
37452;BMP280;23314;51.114;6.900;2023-07-02T18:57:18;100729.72;;;24.36
37452;BMP280;23314;51.114;6.900;2023-07-02T18:59:47;100726.81;;;24.28
37452;BMP280;23314;51.114;6.900;2023-07-02T19:02:13;100719.94;;;24.15
37452;BMP280;23314;51.114;6.900;2023-07-02T19:04:39;100724.69;;;24.04
37452;BMP280;23314;51.114;6.900;2023-07-02T19:07:04;100727.97;;;23.91
37452;BMP280;23314;51.114;6.900;2023-07-02T19:09:35;100718.13;;;23.82
37452;BMP280;23314;51.114;6.900;2023-07-02T19:12:04;100715.69;;;23.67
37452;BMP280;23314;51.114;6.900;2023-07-02T19:14:32;100723.38;;;23.57
37452;BMP280;23314;51.114;6.900;2023-07-02T19:17:01;100718.25;;;23.48
37452;BMP280;23314;51.114;6.900;2023-07-02T19:19:29;100715.53;;;23.37
37452;BMP280;23314;51.114;6.900;2023-07-02T19:21:55;100716.75;;;23.30
37452;BMP280;23314;51.114;6.900;2023-07-02T19:24:20;100714.81;;;23.25
37452;BMP280;23314;51.114;6.900;2023-07-02T19:26:45;100711.59;;;23.15
37452;BMP280;23314;51.114;6.900;2023-07-02T19:29:13;100713.84;;;23.05
37452;BMP280;23314;51.114;6.900;2023-07-02T19:31:38;100721.00;;;22.91
37452;BMP280;23314;51.114;6.900;2023-07-02T19:34:10;100715.34;;;22.78
37452;BMP280;23314;51.114;6.900;2023-07-02T19:36:36;100716.53;;;22.71
37452;BMP280;23314;51.114;6.900;2023-07-02T19:39:01;100712.56;;;22.61
37452;BMP280;23314;51.114;6.900;2023-07-02T19:41:26;100714.56;;;22.55
37452;BMP280;23314;51.114;6.900;2023-07-02T19:43:53;100709.84;;;22.50
37452;BMP280;23314;51.114;6.900;2023-07-02T19:46:19;100719.47;;;22.45
37452;BMP280;23314;51.114;6.900;2023-07-02T19:48:44;100720.44;;;22.42
37452;BMP280;23314;51.114;6.900;2023-07-02T19:51:10;100728.84;;;22.38
37452;BMP280;23314;51.114;6.900;2023-07-02T19:53:35;100726.84;;;22.33
37452;BMP280;23314;51.114;6.900;2023-07-02T19:56:08;100725.88;;;22.31
37452;BMP280;23314;51.114;6.900;2023-07-02T19:58:34;100730.53;;;22.25
